Aviation Digital Data Service (ADDS)

Output produced by METARs form (0008 UTC 24 May 2022)
found at http://www.aviationweather.gov/metar/data/
 
MYGF 231515Z 2318/2418 12012KT 9999 SCT025
       
MYNN 231515Z 2318/2418 12012KT 9999 SCT025